Time;durP1;ratioP1;P1;durP2;ratioP2;P2;SDS_P1;SDS_P2;PMS_P1;PMS_P2;Temp;Humidity;BMP_temperature;BMP_pressure;BME280_temperature;BME280_humidity;BME280_pressure;Samples;Min_cycle;Max_cycle;Signal;HPM_P1;HPM_P2
2024/01/04 00:02:17;;;;;;;19.17;10.30;;;;;;;4.77;84.84;94466.41;4975827;28;20050;-86
2024/01/04 00:04:43;;;;;;;20.73;11.13;;;;;;;4.80;84.70;94473.78;4975403;28;20066;-86
2024/01/04 00:07:08;;;;;;;23.73;10.77;;;;;;;4.72;84.66;94457.69;4975949;28;20039;-86
2024/01/04 00:09:34;;;;;;;21.75;11.15;;;;;;;4.22;83.87;94388.06;4978311;28;20097;-84
2024/01/04 00:12:00;;;;;;;24.50;10.98;;;;;;;5.30;84.40;94551.28;4981102;28;20039;-84
2024/01/04 00:14:25;;;;;;;23.52;11.57;;;;;;;5.26;83.79;94545.78;4980648;28;20031;-84
2024/01/04 00:16:51;;;;;;;23.98;10.85;;;;;;;4.52;83.58;94439.97;4982245;28;20038;-83
2024/01/04 00:19:17;;;;;;;20.65;11.00;;;;;;;4.74;84.33;94460.84;4982168;28;20486;-84
2024/01/04 00:21:43;;;;;;;17.88;9.82;;;;;;;3.79;84.10;94300.69;4982558;28;20026;-84
2024/01/04 00:24:08;;;;;;;32.03;11.75;;;;;;;4.58;84.38;94439.75;4982337;28;20029;-84
2024/01/04 00:26:34;;;;;;;28.08;11.70;;;;;;;4.94;85.40;94498.56;4981992;28;20077;-84
2024/01/04 00:29:00;;;;;;;21.08;10.73;;;;;;;4.98;85.28;94519.84;4981213;28;20026;-83
2024/01/04 00:31:28;;;;;;;25.50;10.25;;;;;;;4.98;85.27;94525.88;4979794;28;20386;-84
2024/01/04 00:33:54;;;;;;;24.23;10.60;;;;;;;4.35;84.92;94421.75;4981437;28;20038;-84
2024/01/04 00:36:19;;;;;;;24.00;10.57;;;;;;;4.67;84.82;94474.19;4981344;28;20510;-84
2024/01/04 00:38:45;;;;;;;21.05;10.25;;;;;;;3.93;84.65;94356.13;4979593;28;20030;-84
2024/01/04 00:41:10;;;;;;;21.75;11.23;;;;;;;4.26;85.28;94424.06;4980290;28;20038;-84
2024/01/04 00:43:39;;;;;;;25.95;12.25;;;;;;;4.70;83.93;94507.84;4981656;28;20042;-84
2024/01/04 00:46:05;;;;;;;19.05;10.15;;;;;;;4.62;85.91;94522.25;4980372;28;20044;-84
2024/01/04 00:48:30;;;;;;;23.20;11.00;;;;;;;4.46;85.53;94480.38;4981194;28;20114;-84
2024/01/04 00:50:56;;;;;;;20.17;10.95;;;;;;;2.89;85.33;94233.44;4979716;28;20121;-84
2024/01/04 00:53:21;;;;;;;21.65;11.82;;;;;;;4.39;85.22;94459.59;4981273;28;20038;-84
2024/01/04 00:55:47;;;;;;;24.92;11.52;;;;;;;4.14;84.88;94446.28;4979769;28;20077;-84
2024/01/04 00:58:12;;;;;;;19.63;10.27;;;;;;;4.68;84.92;94546.72;4981146;28;20105;-84
2024/01/04 01:00:38;;;;;;;24.60;10.43;;;;;;;3.95;85.50;94429.34;4979558;28;20035;-84
2024/01/04 01:03:04;;;;;;;22.55;11.13;;;;;;;4.18;85.36;94466.53;4980270;28;20034;-84
2024/01/04 01:05:29;;;;;;;18.35;10.63;;;;;;;4.26;85.09;94463.44;4980625;28;20038;-84
2024/01/04 01:07:55;;;;;;;25.08;11.82;;;;;;;3.94;85.53;94454.78;4980915;28;20034;-84
2024/01/04 01:10:21;;;;;;;26.33;11.52;;;;;;;3.97;85.80;94450.88;4982634;28;20064;-84
2024/01/04 01:12:46;;;;;;;22.23;12.52;;;;;;;4.53;85.10;94544.75;4980084;28;20027;-84
2024/01/04 01:15:12;;;;;;;27.30;13.65;;;;;;;4.00;86.00;94463.47;4980667;28;20038;-84
2024/01/04 01:17:37;;;;;;;30.80;14.30;;;;;;;3.82;86.05;94427.91;4980502;28;20042;-84
2024/01/04 01:20:03;;;;;;;36.45;16.77;;;;;;;4.63;86.52;94551.94;4979201;28;20042;-84
2024/01/04 01:22:29;;;;;;;34.22;16.73;;;;;;;4.11;86.52;94479.06;4979926;28;20557;-84
2024/01/04 01:24:54;;;;;;;29.67;15.77;;;;;;;4.62;86.07;94572.16;4981459;28;20035;-84
2024/01/04 01:27:21;;;;;;;41.22;17.42;;;;;;;3.44;86.50;94363.31;4980093;28;20050;-84
2024/01/04 01:29:46;;;;;;;39.83;16.33;;;;;;;4.11;86.94;94480.91;4985675;28;20053;-84
2024/01/04 01:32:14;;;;;;;35.72;17.08;;;;;;;2.74;85.81;94264.69;4995647;28;20042;-84
2024/01/04 01:34:42;;;;;;;28.67;15.07;;;;;;;1.99;86.02;94137.25;4992138;28;20544;-84
2024/01/04 01:37:07;;;;;;;31.42;14.07;;;;;;;3.99;86.21;94461.88;4981874;28;20140;-84
2024/01/04 01:39:33;;;;;;;32.85;14.27;;;;;;;3.99;86.32;94454.81;4980755;28;20062;-84
2024/01/04 01:41:58;;;;;;;31.95;14.20;;;;;;;3.73;86.65;94405.81;4980829;28;20027;-84
2024/01/04 01:44:24;;;;;;;28.13;13.55;;;;;;;3.28;85.81;94349.28;4977950;28;20497;-85
2024/01/04 01:46:50;;;;;;;34.35;13.43;;;;;;;3.65;85.96;94387.91;4966912;28;20027;-84
2024/01/04 01:49:16;;;;;;;31.05;14.30;;;;;;;3.74;85.93;94420.47;4964540;28;20035;-84
2024/01/04 01:51:41;;;;;;;27.75;14.10;;;;;;;4.46;87.16;94554.69;4962265;28;20046;-84
2024/01/04 01:54:08;;;;;;;29.25;13.57;;;;;;;4.70;86.88;94573.53;4959087;29;20028;-84
2024/01/04 01:56:33;;;;;;;31.42;13.52;;;;;;;2.57;86.22;94232.59;4976071;28;20034;-84
2024/01/04 01:59:01;;;;;;;25.15;12.18;;;;;;;4.50;86.81;94540.00;4980699;28;20106;-84
2024/01/04 02:01:27;;;;;;;26.75;13.45;;;;;;;4.85;86.23;94573.63;4979591;28;20034;-84
2024/01/04 02:03:54;;;;;;;26.83;12.35;;;;;;;4.83;86.06;94569.66;4979176;28;20057;-84
2024/01/04 02:06:20;;;;;;;22.00;11.48;;;;;;;4.55;86.47;94500.66;4978526;28;20106;-84
2024/01/04 02:08:46;;;;;;;20.50;10.65;;;;;;;4.64;86.63;94516.75;4980119;28;20489;-84
2024/01/04 02:11:11;;;;;;;25.58;12.15;;;;;;;4.98;86.13;94575.81;4980545;28;20058;-84
2024/01/04 02:13:37;;;;;;;28.60;12.20;;;;;;;4.66;86.34;94497.03;4977084;28;20035;-84
2024/01/04 02:16:03;;;;;;;25.70;11.07;;;;;;;3.92;86.54;94393.09;4978175;28;20041;-84
2024/01/04 02:18:28;;;;;;;21.90;10.57;;;;;;;4.90;86.64;94536.06;4977910;28;20661;-84
2024/01/04 02:20:54;;;;;;;19.25;10.40;;;;;;;4.42;86.70;94476.69;4978478;28;20493;-84
2024/01/04 02:23:19;;;;;;;19.58;9.80;;;;;;;4.23;86.78;94447.41;4981389;28;20079;-84
2024/01/04 02:25:45;;;;;;;19.30;10.07;;;;;;;4.00;86.54;94392.63;4985362;28;20033;-84
2024/01/04 02:28:10;;;;;;;19.38;9.70;;;;;;;4.85;86.46;94526.34;4984679;28;20031;-84
2024/01/04 02:30:36;;;;;;;25.95;11.00;;;;;;;5.21;86.70;94553.63;4975301;28;20019;-86
2024/01/04 02:33:02;;;;;;;19.85;10.13;;;;;;;3.38;85.51;94249.00;4972714;28;20049;-86
2024/01/04 02:35:28;;;;;;;22.70;8.98;;;;;;;4.63;86.05;94424.03;4974112;28;20077;-86
2024/01/04 02:37:53;;;;;;;17.08;8.07;;;;;;;5.41;86.00;94527.44;4973118;28;20038;-86
2024/01/04 02:40:19;;;;;;;20.13;9.00;;;;;;;5.14;86.10;94476.81;4973056;28;20490;-86
2024/01/04 02:42:44;;;;;;;16.67;8.52;;;;;;;5.36;85.68;94519.50;4972896;28;20034;-86
2024/01/04 02:45:10;;;;;;;15.85;8.38;;;;;;;4.14;85.45;94301.94;4974257;28;20162;-86
2024/01/04 02:47:36;;;;;;;15.38;8.52;;;;;;;4.93;85.33;94431.28;4968444;28;20043;-86
2024/01/04 02:50:02;;;;;;;21.35;8.68;;;;;;;4.27;84.69;94306.75;4972172;28;20058;-86
2024/01/04 02:52:28;;;;;;;15.48;8.20;;;;;;;5.07;84.67;94443.94;4972933;28;20484;-86
2024/01/04 02:54:55;;;;;;;17.98;8.23;;;;;;;4.85;84.73;94394.97;4973345;28;20066;-86
2024/01/04 02:57:20;;;;;;;14.20;7.43;;;;;;;4.90;84.42;94402.88;4972796;28;20181;-86
2024/01/04 02:59:46;;;;;;;14.77;7.40;;;;;;;5.42;84.68;94486.91;4954381;28;20078;-86
2024/01/04 03:02:12;;;;;;;19.10;8.07;;;;;;;5.06;84.62;94461.53;4955104;28;20051;-86
2024/01/04 03:04:40;;;;;;;16.83;8.38;;;;;;;4.80;84.64;94431.75;4953677;29;20094;-86
2024/01/04 03:07:06;;;;;;;19.13;8.30;;;;;;;4.84;85.34;94421.50;4953914;28;20039;-86
2024/01/04 03:09:32;;;;;;;24.48;8.85;;;;;;;5.22;84.83;94454.50;4953802;29;20039;-86
2024/01/04 03:11:57;;;;;;;26.85;10.25;;;;;;;5.15;84.33;94454.75;4954584;28;20050;-86
2024/01/04 03:14:23;;;;;;;17.40;8.68;;;;;;;4.43;84.02;94339.09;4954750;29;20438;-86
2024/01/04 03:16:48;;;;;;;18.85;8.63;;;;;;;4.53;84.89;94360.16;4954045;29;20085;-86
2024/01/04 03:19:14;;;;;;;19.65;9.18;;;;;;;4.53;84.74;94368.03;4953637;29;20512;-86
2024/01/04 03:21:40;;;;;;;15.68;8.77;;;;;;;4.57;85.29;94384.88;4953394;29;20035;-86
2024/01/04 03:24:05;;;;;;;25.27;8.60;;;;;;;5.15;84.96;94481.03;4955449;28;20454;-86
2024/01/04 03:26:31;;;;;;;20.88;9.57;;;;;;;5.01;84.75;94443.94;4958878;28;20422;-86
2024/01/04 03:28:56;;;;;;;14.45;8.60;;;;;;;4.69;85.38;94397.78;4958284;29;20489;-86
2024/01/04 03:31:22;;;;;;;22.88;10.38;;;;;;;4.98;85.19;94439.16;4956540;29;20035;-86
2024/01/04 03:33:49;;;;;;;20.58;9.50;;;;;;;4.59;84.75;94372.25;4956716;29;20203;-86
2024/01/04 03:36:15;;;;;;;25.83;10.82;;;;;;;5.21;84.24;94474.75;4958785;28;20034;-86
2024/01/04 03:38:40;;;;;;;28.33;11.63;;;;;;;4.06;84.35;94292.72;4957637;29;20058;-86
2024/01/04 03:41:07;;;;;;;20.80;10.65;;;;;;;5.41;84.01;94489.84;4971409;28;20058;-84
2024/01/04 03:43:34;;;;;;;24.58;10.80;;;;;;;4.73;83.86;94386.50;4979735;28;20089;-84
2024/01/04 03:45:59;;;;;;;29.77;12.23;;;;;;;4.98;83.73;94419.97;4980113;28;20035;-84
2024/01/04 03:48:25;;;;;;;22.05;11.65;;;;;;;4.85;83.53;94402.88;4982414;28;20031;-84
2024/01/04 03:50:50;;;;;;;19.80;11.30;;;;;;;4.85;83.27;94373.97;4978353;28;20038;-86
2024/01/04 03:53:16;;;;;;;26.30;11.57;;;;;;;5.52;83.01;94483.53;4976945;28;20145;-86
2024/01/04 03:55:41;;;;;;;24.70;12.40;;;;;;;4.77;82.82;94378.91;4975745;28;20174;-86
2024/01/04 03:58:07;;;;;;;23.35;11.93;;;;;;;4.86;83.25;94401.03;4977195;28;20055;-86
2024/01/04 04:00:32;;;;;;;23.05;10.82;;;;;;;4.91;83.00;94417.59;4977285;28;20034;-86
2024/01/04 04:02:58;;;;;;;21.80;11.40;;;;;;;5.39;83.29;94489.28;4977501;28;20456;-86
2024/01/04 04:05:24;;;;;;;23.52;10.75;;;;;;;4.96;82.73;94414.19;4977247;28;20574;-86
2024/01/04 04:07:49;;;;;;;18.95;10.75;;;;;;;5.16;82.81;94437.94;4976300;28;20038;-86
2024/01/04 04:10:15;;;;;;;19.15;9.75;;;;;;;5.04;83.29;94440.78;4977817;28;20039;-86
2024/01/04 04:12:40;;;;;;;21.27;10.90;;;;;;;4.11;82.92;94295.38;4977478;28;20030;-86
2024/01/04 04:15:07;;;;;;;19.02;9.88;;;;;;;4.65;82.91;94369.41;4977177;28;20031;-86
2024/01/04 04:17:32;;;;;;;22.20;10.43;;;;;;;4.62;83.17;94369.13;4978122;28;20100;-86
2024/01/04 04:19:58;;;;;;;19.70;8.80;;;;;;;3.51;82.90;94183.03;4986353;28;20038;-86
2024/01/04 04:22:23;;;;;;;22.08;9.13;;;;;;;4.49;82.67;94340.72;4992125;28;20034;-86
2024/01/04 04:24:49;;;;;;;16.90;9.48;;;;;;;4.47;82.61;94358.56;4983338;28;20045;-86
2024/01/04 04:27:14;;;;;;;17.25;9.02;;;;;;;4.88;83.21;94417.34;4979453;28;20043;-86
2024/01/04 04:29:40;;;;;;;17.98;9.25;;;;;;;4.58;82.81;94373.28;4978797;28;20031;-86
2024/01/04 04:32:06;;;;;;;22.80;10.25;;;;;;;4.81;83.05;94427.25;4987222;28;20402;-87
2024/01/04 04:34:32;;;;;;;16.77;9.32;;;;;;;4.64;83.59;94401.97;4977562;28;20054;-86
2024/01/04 04:36:58;;;;;;;16.40;8.02;;;;;;;4.27;82.86;94348.75;4975725;28;20023;-86
2024/01/04 04:39:23;;;;;;;15.70;7.70;;;;;;;3.84;83.32;94260.59;4976176;28;20058;-86
2024/01/04 04:41:49;;;;;;;18.25;8.50;;;;;;;4.70;83.57;94431.69;4975923;28;20053;-87
2024/01/04 04:44:14;;;;;;;22.52;8.32;;;;;;;5.08;83.44;94483.09;4975270;28;20046;-86
2024/01/04 04:46:40;;;;;;;22.67;8.20;;;;;;;4.95;83.68;94452.03;4976476;28;20054;-86
2024/01/04 04:49:07;;;;;;;17.88;7.15;;;;;;;4.90;83.84;94444.91;4976322;28;20047;-85
2024/01/04 04:51:33;;;;;;;18.17;7.47;;;;;;;4.82;83.67;94449.84;4975733;28;20494;-87
2024/01/04 04:53:58;;;;;;;17.48;8.48;;;;;;;4.66;83.30;94405.13;4976008;28;20038;-87
2024/01/04 04:56:24;;;;;;;26.58;9.02;;;;;;;4.49;82.99;94366.97;4978112;28;20039;-87
2024/01/04 04:58:49;;;;;;;18.80;8.80;;;;;;;4.89;83.44;94432.03;4961774;28;20055;-85
2024/01/04 05:01:15;;;;;;;24.80;9.55;;;;;;;5.13;82.78;94471.81;4959360;28;20046;-86
2024/01/04 05:03:41;;;;;;;23.38;9.60;;;;;;;5.24;82.50;94468.19;4961710;28;20046;-86
2024/01/04 05:06:08;;;;;;;21.55;9.15;;;;;;;5.22;82.35;94468.44;4957355;28;20043;-86
2024/01/04 05:09:17;;;;;;;18.17;9.80;;;;;;;5.09;81.83;94487.31;4979263;28;20035;-86
2024/01/04 05:11:43;;;;;;;21.83;8.50;;;;;;;3.94;83.31;94349.84;4955977;28;20123;-87
2024/01/04 05:14:08;;;;;;;28.20;10.93;;;;;;;4.89;83.42;94489.81;4957197;28;20046;-86
2024/01/04 05:16:34;;;;;;;21.08;11.18;;;;;;;3.50;83.26;94288.94;4970335;28;20039;-89
2024/01/04 05:19:09;;;;;;;27.67;11.20;;;;;;;3.68;83.21;94312.13;4963962;28;20055;-87
2024/01/04 05:21:35;;;;;;;21.67;11.98;;;;;;;4.72;83.67;94491.84;4967136;28;20041;-86
2024/01/04 05:24:12;;;;;;;28.63;12.57;;;;;;;4.96;83.63;94504.31;4958296;28;20039;-87
2024/01/04 05:26:46;;;;;;;47.38;14.15;;;;;;;2.91;83.19;94210.38;4956683;28;20038;-86
2024/01/04 05:29:14;;;;;;;38.17;15.50;;;;;;;2.20;82.45;94125.19;4965090;28;20038;-87
2024/01/04 05:31:40;;;;;;;29.83;11.90;;;;;;;1.19;82.38;93941.97;4954846;28;20030;-87
2024/01/04 05:34:05;;;;;;;24.10;11.45;;;;;;;3.56;82.85;94297.63;4941915;28;20041;-87
2024/01/04 05:36:31;;;;;;;25.45;11.25;;;;;;;4.80;82.81;94486.91;4951064;28;20118;-87
2024/01/04 05:38:59;;;;;;;28.00;10.70;;;;;;;4.80;83.25;94502.69;4953421;28;20034;-86
2024/01/04 05:41:25;;;;;;;29.45;10.65;;;;;;;3.61;82.98;94340.41;4946265;28;20045;-87
2024/01/04 05:43:50;;;;;;;23.63;10.80;;;;;;;3.30;82.94;94268.59;4953987;28;20035;-87
2024/01/04 05:46:16;;;;;;;28.80;9.93;;;;;;;3.64;83.09;94339.13;4947613;28;20297;-87
2024/01/04 05:48:42;;;;;;;24.23;11.63;;;;;;;3.16;83.62;94330.31;4982108;28;20443;-86
2024/01/04 05:51:07;;;;;;;29.08;10.15;;;;;;;1.70;84.62;94099.28;4953783;28;20041;-87
2024/01/04 05:53:33;;;;;;;26.45;10.57;;;;;;;3.62;84.67;94383.94;4949291;28;20042;-88
2024/01/04 05:55:58;;;;;;;31.40;11.40;;;;;;;3.07;84.86;94318.69;4941093;28;20027;-88
2024/01/04 05:58:24;;;;;;;25.58;11.57;;;;;;;3.21;84.90;94332.19;4951321;28;20055;-88
2024/01/04 06:00:49;;;;;;;29.33;10.20;;;;;;;3.42;84.94;94345.25;4953271;28;20039;-87
2024/01/04 06:03:16;;;;;;;28.80;11.45;;;;;;;3.73;85.36;94384.84;4956178;28;20980;-86
2024/01/04 06:05:42;;;;;;;23.88;11.38;;;;;;;4.45;85.39;94497.94;4955193;28;20043;-85
2024/01/04 06:08:07;;;;;;;21.92;10.82;;;;;;;3.30;85.07;94313.16;4957007;28;20090;-86
2024/01/04 06:10:34;;;;;;;24.15;11.30;;;;;;;4.00;85.12;94429.38;4953528;28;20088;-86
2024/01/04 06:12:59;;;;;;;28.13;12.68;;;;;;;1.38;85.03;94023.41;4964097;28;20263;-85
2024/01/04 06:15:25;;;;;;;37.10;13.70;;;;;;;3.13;84.71;94315.06;4961734;28;20023;-86
2024/01/04 06:17:51;;;;;;;31.35;13.13;;;;;;;3.08;85.54;94279.16;4972729;28;20034;-86
2024/01/04 06:20:16;;;;;;;29.20;12.25;;;;;;;1.84;85.72;94116.97;4964688;28;20148;-86
2024/01/04 06:22:43;;;;;;;24.50;11.73;;;;;;;3.03;85.98;94300.06;4941778;28;20159;-86
2024/01/04 06:25:10;;;;;;;27.00;10.85;;;;;;;2.56;85.27;94197.75;4950527;28;20090;-86
2024/01/04 06:27:36;;;;;;;23.80;11.18;;;;;;;2.40;85.36;94171.69;4966691;28;20497;-86
2024/01/04 06:30:01;;;;;;;22.27;11.25;;;;;;;4.62;85.50;94505.69;4964911;28;20045;-86
2024/01/04 06:32:27;;;;;;;35.65;12.38;;;;;;;4.08;85.49;94403.47;4968843;28;20729;-86
2024/01/04 06:34:55;;;;;;;38.00;12.35;;;;;;;4.14;85.20;94404.28;4969073;28;20050;-86
2024/01/04 06:37:20;;;;;;;31.83;12.50;;;;;;;4.76;85.19;94495.53;4968011;28;20053;-86
2024/01/04 06:39:49;;;;;;;37.65;13.05;;;;;;;4.34;85.09;94422.00;4965856;28;20037;-86
2024/01/04 06:42:15;;;;;;;37.75;14.77;;;;;;;4.99;85.47;94514.34;4969774;28;20077;-86
2024/01/04 06:44:40;;;;;;;35.72;13.18;;;;;;;4.65;84.73;94469.19;4966727;28;20439;-87
2024/01/04 06:47:06;;;;;;;30.85;11.63;;;;;;;4.60;85.22;94473.63;4967266;28;20034;-87
2024/01/04 06:49:31;;;;;;;27.48;10.80;;;;;;;4.56;85.25;94446.31;4969083;28;20441;-88
2024/01/04 06:51:57;;;;;;;24.95;11.27;;;;;;;3.24;85.27;94219.03;4961705;28;20038;-88
2024/01/04 06:54:23;;;;;;;31.65;12.13;;;;;;;4.54;85.51;94412.41;4963016;28;20375;-86
2024/01/04 06:56:48;;;;;;;565.85;49.08;;;;;;;3.85;85.59;94302.31;4958001;28;20144;-86
2024/01/04 06:59:14;;;;;;;41.38;12.40;;;;;;;4.55;85.30;94389.59;4957103;28;20062;-86
2024/01/04 07:01:39;;;;;;;42.38;12.73;;;;;;;3.61;85.36;94243.41;4956983;28;20039;-88
2024/01/04 07:04:05;;;;;;;30.40;11.75;;;;;;;5.29;85.12;94507.66;4950388;28;20053;-89
2024/01/04 07:06:30;;;;;;;41.72;12.57;;;;;;;5.02;84.87;94444.72;4955839;28;20035;-87
2024/01/04 07:08:56;;;;;;;48.85;15.93;;;;;;;4.07;84.67;94286.44;4947493;28;20173;-85
2024/01/04 07:11:22;;;;;;;48.72;14.77;;;;;;;5.29;84.93;94484.78;4942043;28;20863;-85
2024/01/04 07:13:48;;;;;;;32.45;12.68;;;;;;;5.02;84.47;94439.47;4953388;28;20038;-86
2024/01/04 07:16:16;;;;;;;34.75;13.13;;;;;;;5.24;84.16;94449.81;4957314;28;20037;-86
2024/01/04 07:18:41;;;;;;;36.72;15.52;;;;;;;4.95;84.48;94399.50;4950415;28;20047;-86
2024/01/04 07:21:07;;;;;;;33.75;14.43;;;;;;;4.96;83.94;94388.69;4955842;28;20042;-85
2024/01/04 07:23:33;;;;;;;57.83;14.70;;;;;;;5.34;83.87;94442.72;4961791;28;20390;-85
2024/01/04 07:26:02;;;;;;;32.30;13.00;;;;;;;5.95;84.05;94521.81;4971834;28;20046;-86
2024/01/04 07:28:29;;;;;;;27.95;11.10;;;;;;;5.70;84.17;94485.72;4985413;28;20066;-85
2024/01/04 07:30:54;;;;;;;32.22;11.35;;;;;;;4.37;83.84;94275.28;4967885;28;20062;-85
2024/01/04 07:33:22;;;;;;;37.10;11.88;;;;;;;6.10;83.86;94507.94;4969213;28;20042;-85
2024/01/04 07:35:47;;;;;;;29.95;10.55;;;;;;;5.62;83.34;94396.00;4968739;28;20022;-85
2024/01/04 07:38:13;;;;;;;30.05;11.65;;;;;;;6.30;83.60;94489.50;4965313;28;20034;-84
2024/01/04 07:40:38;;;;;;;35.42;11.68;;;;;;;6.07;83.04;94425.00;4963529;28;20473;-84
2024/01/04 07:43:04;;;;;;;28.30;9.93;;;;;;;5.70;82.66;94367.31;4967609;28;20039;-84
2024/01/04 07:45:31;;;;;;;30.42;9.77;;;;;;;6.50;81.94;94460.53;4960727;28;20031;-84
2024/01/04 07:47:57;;;;;;;20.85;10.25;;;;;;;6.44;81.90;94452.88;4941491;28;20039;-84
2024/01/04 07:50:23;;;;;;;25.95;9.52;;;;;;;6.64;81.35;94470.53;4959388;28;20050;-84
2024/01/04 07:52:48;;;;;;;29.38;10.00;;;;;;;6.31;81.55;94411.28;4961379;28;20050;-83
2024/01/04 07:55:14;;;;;;;31.55;10.77;;;;;;;6.28;81.22;94399.44;4964769;28;20061;-84
2024/01/04 07:57:39;;;;;;;34.15;10.65;;;;;;;6.17;81.06;94403.94;4969006;28;20098;-85
2024/01/04 08:00:06;;;;;;;28.73;9.82;;;;;;;6.77;80.76;94481.31;4966588;28;20395;-85
2024/01/04 08:02:32;;;;;;;34.58;8.98;;;;;;;6.82;80.28;94456.78;4958627;28;20448;-85
2024/01/04 08:04:58;;;;;;;40.38;11.60;;;;;;;5.74;80.40;94264.97;4995595;23;20058;-85
2024/01/04 08:07:24;;;;;;;24.63;9.43;;;;;;;6.86;80.69;94437.56;4976203;28;20093;-86
2024/01/04 08:09:50;;;;;;;25.05;10.45;;;;;;;5.16;80.18;94161.97;4978780;28;20041;-84
2024/01/04 08:12:20;;;;;;;32.20;11.00;;;;;;;5.61;80.67;94220.81;4988446;28;20041;-86
2024/01/04 08:14:46;;;;;;;32.73;13.40;;;;;;;6.81;81.37;94427.00;4954470;28;20042;-84
2024/01/04 08:17:11;;;;;;;55.30;14.45;;;;;;;5.49;81.16;94215.03;4970159;28;20046;-86
2024/01/04 08:19:37;;;;;;;43.28;16.35;;;;;;;6.49;81.73;94364.09;4972672;28;20049;-86
2024/01/04 08:22:02;;;;;;;42.42;17.63;;;;;;;6.79;82.29;94434.38;4974701;28;20034;-85
2024/01/04 08:24:28;;;;;;;43.95;18.10;;;;;;;5.46;81.11;94189.25;4991034;28;20038;-85
2024/01/04 08:26:54;;;;;;;69.72;23.80;;;;;;;6.19;81.29;94312.28;4987273;28;20034;-85
2024/01/04 08:29:25;;;;;;;62.15;23.45;;;;;;;6.69;80.55;94386.19;5006682;28;20073;-85
2024/01/04 08:31:51;;;;;;;71.30;30.77;;;;;;;7.13;79.90;94454.84;4955787;28;20072;-85
2024/01/04 08:34:19;;;;;;;74.45;29.73;;;;;;;5.05;79.67;94120.97;4986821;28;20513;-84
2024/01/04 08:36:45;;;;;;;96.55;36.60;;;;;;;4.03;78.81;93975.78;4988152;28;20034;-85
2024/01/04 08:39:11;;;;;;;105.68;35.50;;;;;;;5.29;79.35;94171.13;4975558;28;20038;-84
2024/01/04 08:41:36;;;;;;;94.15;39.80;;;;;;;7.02;79.03;94435.63;4975310;28;20587;-84
2024/01/04 08:44:02;;;;;;;82.18;38.92;;;;;;;6.99;79.18;94423.00;4970532;28;20175;-85
2024/01/04 08:46:27;;;;;;;81.40;36.67;;;;;;;6.40;78.96;94307.00;4970488;28;20157;-85
2024/01/04 08:48:53;;;;;;;83.25;37.63;;;;;;;6.32;79.34;94300.44;4989825;28;20034;-85
2024/01/04 08:51:18;;;;;;;75.78;34.35;;;;;;;7.02;79.33;94406.63;4966329;28;20053;-86
2024/01/04 08:53:44;;;;;;;74.80;31.42;;;;;;;7.02;79.05;94392.69;4966216;28;20585;-86
2024/01/04 08:56:13;;;;;;;68.13;28.80;;;;;;;6.38;78.63;94299.38;4966846;28;20022;-84
2024/01/04 08:58:44;;;;;;;69.60;30.48;;;;;;;6.58;78.16;94304.56;4975067;28;20355;-85
2024/01/04 09:01:10;;;;;;;70.28;30.85;;;;;;;7.34;78.05;94422.84;4976599;28;20049;-86
2024/01/04 09:03:35;;;;;;;61.58;30.27;;;;;;;7.10;77.85;94345.44;4974222;28;20212;-84
2024/01/04 09:06:01;;;;;;;59.15;29.85;;;;;;;7.12;77.88;94345.97;4975746;28;20035;-84
2024/01/04 09:08:27;;;;;;;53.13;26.75;;;;;;;7.52;77.78;94386.38;4977560;28;20048;-84
2024/01/04 09:10:53;;;;;;;63.38;26.90;;;;;;;5.38;77.14;94054.66;4981198;28;20033;-83
2024/01/04 09:13:19;;;;;;;40.85;18.65;;;;;;;7.13;77.06;94333.56;4970409;28;20035;-84
2024/01/04 09:15:45;;;;;;;39.75;17.77;;;;;;;6.67;76.51;94241.56;4993632;28;20085;-84
2024/01/04 09:18:10;;;;;;;39.88;18.95;;;;;;;7.23;76.38;94307.16;4972699;28;20034;-83
2024/01/04 09:20:36;;;;;;;41.38;16.83;;;;;;;7.47;76.62;94347.63;4970422;28;20078;-83
2024/01/04 09:23:02;;;;;;;33.72;12.80;;;;;;;5.77;76.11;94093.44;4967340;28;20041;-84
2024/01/04 09:25:28;;;;;;;37.60;15.05;;;;;;;5.95;76.27;94137.59;4994690;28;20099;-84
2024/01/04 09:27:54;;;;;;;36.80;16.67;;;;;;;6.87;77.13;94278.31;4972857;28;20030;-83
2024/01/04 09:30:20;;;;;;;32.75;14.68;;;;;;;6.73;76.74;94237.81;4970915;28;20528;-83
2024/01/04 09:32:45;;;;;;;36.40;16.13;;;;;;;7.17;76.69;94332.75;4973935;28;20575;-87
2024/01/04 09:35:11;;;;;;;45.95;16.23;;;;;;;6.39;76.71;94186.91;4975830;28;20446;-84
2024/01/04 09:37:36;;;;;;;34.38;12.27;;;;;;;7.65;76.77;94365.44;4972827;28;20054;-85
2024/01/04 09:40:03;;;;;;;24.80;10.30;;;;;;;6.40;76.58;94162.94;4992046;28;20049;-84
2024/01/04 09:42:31;;;;;;;19.88;9.60;;;;;;;6.75;75.98;94224.38;4971256;28;20042;-85
2024/01/04 09:45:00;;;;;;;18.60;8.32;;;;;;;7.45;76.01;94309.38;4969853;28;20112;-85
2024/01/04 09:47:27;;;;;;;34.38;9.75;;;;;;;7.75;76.91;94368.00;4964443;28;20062;-87
2024/01/04 09:49:53;;;;;;;19.42;9.00;;;;;;;7.67;76.30;94315.00;4964903;28;20046;-85
2024/01/04 09:52:24;;;;;;;15.80;9.07;;;;;;;7.72;76.18;94307.84;4962572;28;20073;-86
2024/01/04 09:54:52;;;;;;;19.70;7.63;;;;;;;7.87;76.62;94335.16;4951554;28;20048;-84
2024/01/04 09:57:19;;;;;;;15.15;8.23;;;;;;;7.63;76.08;94287.59;4981157;28;20030;-84
2024/01/04 09:59:44;;;;;;;20.45;8.07;;;;;;;7.64;75.42;94273.34;4962870;28;20063;-84
2024/01/04 10:02:11;;;;;;;14.20;7.65;;;;;;;7.80;75.18;94285.34;4969342;28;20038;-84
2024/01/04 10:04:43;;;;;;;15.05;8.10;;;;;;;8.05;75.59;94323.94;4994149;28;20053;-85
2024/01/04 10:07:11;;;;;;;13.07;6.05;;;;;;;7.61;74.27;94247.50;4988717;28;20026;-84
2024/01/04 10:09:51;;;;;;;14.57;6.25;;;;;;;7.89;74.31;94291.59;4994295;28;20714;-85
2024/01/04 10:12:17;;;;;;;16.60;8.00;;;;;;;7.40;74.73;94196.00;4988102;28;20026;-84
2024/01/04 10:14:42;;;;;;;18.25;8.23;;;;;;;8.33;75.02;94317.09;5000320;28;20084;-85
2024/01/04 10:17:10;;;;;;;16.70;8.32;;;;;;;7.95;74.68;94239.53;4986654;28;20733;-85
2024/01/04 10:19:36;;;;;;;20.95;7.88;;;;;;;7.82;74.82;94219.06;4982545;28;20034;-85
2024/01/04 10:22:04;;;;;;;18.27;7.70;;;;;;;8.02;74.72;94179.25;4987132;28;20042;-85
2024/01/04 10:24:35;;;;;;;17.27;7.97;;;;;;;9.19;72.36;94236.72;4998382;28;20293;-85
2024/01/04 10:27:01;;;;;;;13.18;7.50;;;;;;;10.10;69.51;94261.72;4988128;28;20021;-85
2024/01/04 10:29:27;;;;;;;24.23;8.00;;;;;;;-143.51;100.00;62207.84;4986392;28;20408;-85
2024/01/04 10:32:02;;;;;;;19.05;7.60;;;;;;;10.10;69.51;94261.72;4971742;28;20489;-87
2024/01/04 10:34:28;;;;;;;17.13;6.97;;;;;;;12.72;60.74;94208.97;4997251;28;20081;-87
2024/01/04 10:37:08;;;;;;;11.77;6.78;;;;;;;13.83;58.77;94228.78;4971702;28;20065;-89
2024/01/04 10:39:34;;;;;;;18.10;7.30;;;;;;;13.27;54.46;94018.63;4988565;28;20042;-87
2024/01/04 10:42:01;;;;;;;15.45;7.32;;;;;;;14.86;52.85;94163.59;4967782;28;20042;-87
2024/01/04 10:44:32;;;;;;;14.65;6.45;;;;;;;15.50;52.12;94178.47;4969148;28;20054;-88
2024/01/04 10:47:01;;;;;;;13.93;6.82;;;;;;;15.40;49.46;94105.66;4963415;28;20038;-89
2024/01/04 10:49:28;;;;;;;15.68;6.93;;;;;;;13.69;48.42;93751.25;4967008;28;20936;-87
2024/01/04 10:51:57;;;;;;;17.40;7.07;;;;;;;15.61;47.96;94038.81;4967096;28;20053;-88
2024/01/04 10:54:34;;;;;;;17.98;7.07;;;;;;;15.26;50.41;94019.66;4965019;28;20038;-89
2024/01/04 10:57:01;;;;;;;15.55;6.97;;;;;;;16.40;49.36;94168.56;4971937;28;20125;-88
2024/01/04 10:59:29;;;;;;;17.85;7.00;;;;;;;13.97;49.21;93799.44;4970224;28;20046;-88
2024/01/04 11:01:58;;;;;;;23.58;7.82;;;;;;;14.05;50.34;93829.78;4974324;28;20042;-88
2024/01/04 11:04:26;;;;;;;24.73;8.93;;;;;;;16.28;48.67;94130.34;4967726;28;20621;-88
2024/01/04 11:06:53;;;;;;;14.98;7.57;;;;;;;16.17;50.16;94135.38;4972306;28;20034;-88
2024/01/04 11:09:23;;;;;;;17.00;7.60;;;;;;;16.09;49.77;94163.78;4964547;28;20653;-89
2024/01/04 11:11:53;;;;;;;18.67;7.60;;;;;;;13.05;51.19;93790.69;4962802;28;20053;-87
2024/01/04 11:14:51;;;;;;;16.15;6.10;;;;;;;14.80;52.34;94186.22;4970328;28;20050;-90
2024/01/04 11:17:53;;;;;;;19.63;6.60;;;;;;;14.77;52.20;94194.88;4977711;28;21519;-89
2024/01/04 11:20:48;;;;;;;27.80;7.13;;;;;;;13.70;52.28;94027.25;4975368;28;20806;-89
2024/01/04 11:23:52;;;;;;;18.40;6.35;;;;;;;14.36;52.92;94168.06;4975445;28;20107;-89
2024/01/04 11:26:34;;;;;;;18.20;6.47;;;;;;;12.32;52.51;93845.91;4975103;28;20035;-90